Time;durP1;ratioP1;P1;durP2;ratioP2;P2;SDS_P1;SDS_P2;PMS_P1;PMS_P2;Temp;Humidity;BMP_temperature;BMP_pressure;BME280_temperature;BME280_humidity;BME280_pressure;Samples;Min_cycle;Max_cycle;Signal;HPM_P1;HPM_P2
2023/05/07 00:00:10;;;;;;;5.80;4.57;;;20.60;62.80;;;;;;4957548;28;20090;-72
2023/05/07 00:02:37;;;;;;;4.97;4.47;;;20.60;62.80;;;;;;4965085;28;20521;-70
2023/05/07 00:05:03;;;;;;;6.10;5.00;;;20.60;62.80;;;;;;4965150;28;20034;-73
2023/05/07 00:07:29;;;;;;;5.05;4.50;;;20.60;62.80;;;;;;4967339;28;20039;-73
2023/05/07 00:09:54;;;;;;;5.55;5.05;;;20.60;62.80;;;;;;4966793;28;20557;-72
2023/05/07 00:12:20;;;;;;;6.57;5.07;;;20.60;62.70;;;;;;4965524;28;20028;-72
2023/05/07 00:14:45;;;;;;;4.75;4.35;;;20.50;62.70;;;;;;4966186;28;20071;-72
2023/05/07 00:17:11;;;;;;;4.82;4.03;;;20.60;62.70;;;;;;4965681;28;20058;-72
2023/05/07 00:19:36;;;;;;;4.90;4.40;;;20.60;62.70;;;;;;4962077;28;20578;-73
2023/05/07 00:22:02;;;;;;;5.20;4.70;;;20.50;62.70;;;;;;4964102;28;20038;-73
2023/05/07 00:24:27;;;;;;;6.00;4.63;;;20.60;62.70;;;;;;4964361;28;20066;-69
2023/05/07 00:26:53;;;;;;;6.00;4.43;;;20.50;62.60;;;;;;4960747;28;20030;-72
2023/05/07 00:29:18;;;;;;;5.75;4.18;;;20.50;62.60;;;;;;4965124;28;20038;-72
2023/05/07 00:31:44;;;;;;;5.55;4.50;;;20.60;62.70;;;;;;4970223;28;20034;-72
2023/05/07 00:34:10;;;;;;;4.63;4.13;;;20.60;62.70;;;;;;4970919;28;20035;-73
2023/05/07 00:36:35;;;;;;;6.03;4.55;;;20.50;62.60;;;;;;4966787;28;20049;-73
2023/05/07 00:39:03;;;;;;;5.05;4.40;;;20.50;62.50;;;;;;4967835;28;20039;-73
2023/05/07 00:41:30;;;;;;;4.63;4.13;;;20.50;62.60;;;;;;4964538;28;20036;-72
2023/05/07 00:43:56;;;;;;;5.68;5.07;;;20.50;62.50;;;;;;4969864;28;20057;-72
2023/05/07 00:46:22;;;;;;;7.32;4.28;;;20.50;62.50;;;;;;4966987;28;20098;-72
2023/05/07 00:48:49;;;;;;;5.65;4.60;;;20.50;62.50;;;;;;4966905;28;20559;-73
2023/05/07 00:51:15;;;;;;;5.00;4.07;;;20.50;62.50;;;;;;4963183;28;20046;-72
2023/05/07 00:53:41;;;;;;;6.35;4.53;;;20.50;62.50;;;;;;4965514;28;20039;-72
2023/05/07 00:56:07;;;;;;;5.47;4.90;;;20.50;62.50;;;;;;4960667;28;20037;-72
2023/05/07 00:58:33;;;;;;;4.35;3.95;;;20.50;62.50;;;;;;4975861;28;20051;-70
2023/05/07 01:00:59;;;;;;;5.57;4.68;;;20.50;62.50;;;;;;4966945;28;20576;-74
2023/05/07 01:03:24;;;;;;;5.45;4.05;;;20.50;62.50;;;;;;4965991;28;20062;-72
2023/05/07 01:05:51;;;;;;;4.93;4.20;;;20.50;62.50;;;;;;4965582;28;20031;-73
2023/05/07 01:08:18;;;;;;;3.95;3.63;;;20.50;62.50;;;;;;4994876;28;20034;-72
2023/05/07 01:10:44;;;;;;;4.60;4.00;;;20.50;62.50;;;;;;4965192;28;20494;-73
2023/05/07 01:13:12;;;;;;;4.25;3.85;;;20.50;62.50;;;;;;4962203;28;20078;-73
2023/05/07 01:15:38;;;;;;;5.05;3.55;;;20.50;62.50;;;;;;4965786;28;20027;-72
2023/05/07 01:18:04;;;;;;;4.82;3.90;;;20.50;62.50;;;;;;4963330;28;20680;-72
2023/05/07 01:20:30;;;;;;;5.13;3.90;;;20.50;62.50;;;;;;4964018;28;20058;-71
2023/05/07 01:22:57;;;;;;;4.28;3.85;;;20.50;62.50;;;;;;4962705;28;20027;-72
2023/05/07 01:25:23;;;;;;;4.30;3.78;;;20.50;62.50;;;;;;4960713;28;20056;-72
2023/05/07 01:27:48;;;;;;;5.57;3.90;;;20.50;62.50;;;;;;4963266;28;20167;-71
2023/05/07 01:30:14;;;;;;;4.30;3.85;;;20.50;62.40;;;;;;4966612;28;20023;-72
2023/05/07 01:32:59;;;;;;;4.20;3.42;;;20.50;62.40;;;;;;4981249;28;20035;-72
2023/05/07 01:35:29;;;;;;;3.97;3.55;;;20.50;62.40;;;;;;4961248;28;20033;-72
2023/05/07 01:37:55;;;;;;;5.90;4.03;;;20.50;62.40;;;;;;4962541;28;20586;-72
2023/05/07 01:40:21;;;;;;;4.65;3.97;;;20.50;62.40;;;;;;4963106;28;20037;-72
2023/05/07 01:42:48;;;;;;;5.32;3.25;;;20.50;62.40;;;;;;4966898;28;20094;-72
2023/05/07 01:45:13;;;;;;;4.53;4.13;;;20.50;62.40;;;;;;4982187;28;20489;-72
2023/05/07 01:47:39;;;;;;;4.18;3.78;;;20.50;62.50;;;;;;4961999;28;20039;-72
2023/05/07 01:50:09;;;;;;;4.47;4.07;;;20.40;62.40;;;;;;4962122;28;20047;-73
2023/05/07 01:52:36;;;;;;;4.20;3.80;;;20.40;62.30;;;;;;4959345;28;20031;-72
2023/05/07 01:55:01;;;;;;;4.70;3.33;;;20.50;62.40;;;;;;4964087;28;20528;-72
2023/05/07 01:57:27;;;;;;;4.72;3.85;;;20.50;62.40;;;;;;4964896;28;20027;-72
2023/05/07 01:59:52;;;;;;;4.25;3.60;;;20.50;62.40;;;;;;4965883;28;20117;-72
2023/05/07 02:02:17;;;;;;;4.25;3.42;;;20.40;62.30;;;;;;4965261;28;20031;-72
2023/05/07 02:04:43;;;;;;;3.90;3.40;;;20.40;62.30;;;;;;4965008;28;20725;-69
2023/05/07 02:07:09;;;;;;;4.55;3.80;;;20.40;62.30;;;;;;4961417;28;20027;-72
2023/05/07 02:09:35;;;;;;;6.47;3.80;;;20.40;62.30;;;;;;4961854;28;20034;-73
2023/05/07 02:12:01;;;;;;;4.60;3.08;;;20.40;62.30;;;;;;4960951;28;20027;-71
2023/05/07 02:14:26;;;;;;;4.43;3.22;;;20.40;62.30;;;;;;4964008;28;20027;-72
2023/05/07 02:16:52;;;;;;;5.47;3.85;;;20.40;62.30;;;;;;4963133;28;20545;-72
2023/05/07 02:19:18;;;;;;;4.10;3.70;;;20.40;62.30;;;;;;4963537;28;20039;-72
2023/05/07 02:21:43;;;;;;;3.58;3.28;;;20.40;62.20;;;;;;4958385;28;20521;-72
2023/05/07 02:24:09;;;;;;;4.25;3.75;;;20.40;62.20;;;;;;4964604;28;20033;-72
2023/05/07 02:26:34;;;;;;;3.70;3.25;;;20.40;62.20;;;;;;4964103;28;20051;-73
2023/05/07 02:29:00;;;;;;;4.28;3.55;;;20.40;62.20;;;;;;4962814;28;20262;-73
2023/05/07 02:31:25;;;;;;;3.72;3.33;;;20.40;62.20;;;;;;4963415;28;20115;-73
2023/05/07 02:33:51;;;;;;;4.25;3.33;;;20.40;62.20;;;;;;4961619;28;20038;-72
2023/05/07 02:36:17;;;;;;;3.90;3.40;;;20.40;62.20;;;;;;4962562;28;20398;-72
2023/05/07 02:38:42;;;;;;;3.88;3.58;;;20.40;62.20;;;;;;4962702;28;20062;-72
2023/05/07 02:41:07;;;;;;;4.63;3.60;;;20.40;62.20;;;;;;4959194;28;20847;-73
2023/05/07 02:43:33;;;;;;;4.00;3.60;;;20.40;62.20;;;;;;4963444;28;20037;-72
2023/05/07 02:46:03;;;;;;;3.50;3.20;;;20.30;62.10;;;;;;4969687;28;20030;-73
2023/05/07 02:48:28;;;;;;;3.92;3.53;;;20.30;62.10;;;;;;4960835;28;20860;-72
2023/05/07 02:50:54;;;;;;;4.65;3.65;;;20.30;62.10;;;;;;4959145;28;20570;-72
2023/05/07 02:53:19;;;;;;;3.70;3.03;;;20.30;62.10;;;;;;4978034;28;20417;-73
2023/05/07 02:55:45;;;;;;;4.10;2.90;;;20.40;62.10;;;;;;4960980;28;20023;-72
2023/05/07 02:58:10;;;;;;;4.35;3.95;;;20.30;62.10;;;;;;4979762;28;20030;-73
2023/05/07 03:00:36;;;;;;;3.55;3.22;;;20.30;62.10;;;;;;4961393;28;20034;-72
2023/05/07 03:03:01;;;;;;;3.55;3.22;;;20.30;62.10;;;;;;4983657;28;20023;-72
2023/05/07 03:05:27;;;;;;;4.90;3.88;;;20.30;62.10;;;;;;4976005;28;20023;-71
2023/05/07 03:07:52;;;;;;;3.78;3.42;;;20.30;62.10;;;;;;4961947;28;20502;-71
2023/05/07 03:10:18;;;;;;;5.07;3.72;;;20.30;62.10;;;;;;4964524;28;20317;-72
2023/05/07 03:12:44;;;;;;;3.97;3.58;;;20.30;62.10;;;;;;4964181;28;20326;-72
2023/05/07 03:15:11;;;;;;;3.60;2.95;;;20.30;62.10;;;;;;4963094;28;20023;-72
2023/05/07 03:17:36;;;;;;;6.22;3.72;;;20.30;62.10;;;;;;4965321;28;20038;-71
2023/05/07 03:20:02;;;;;;;5.38;3.80;;;20.30;62.10;;;;;;4958461;28;20030;-72
2023/05/07 03:22:27;;;;;;;4.72;3.22;;;20.30;62.00;;;;;;4963091;28;20110;-70
2023/05/07 03:24:53;;;;;;;4.45;3.70;;;20.30;62.00;;;;;;4963844;28;20045;-72
2023/05/07 03:27:18;;;;;;;4.20;3.80;;;20.30;62.00;;;;;;4965027;28;20035;-72
2023/05/07 03:29:44;;;;;;;3.40;3.10;;;20.30;62.70;;;;;;4964057;28;20058;-73
2023/05/07 03:32:10;;;;;;;3.58;3.22;;;20.30;62.00;;;;;;4965026;28;20517;-71
2023/05/07 03:34:35;;;;;;;5.43;3.67;;;20.30;62.00;;;;;;4964658;28;20031;-72
2023/05/07 03:39:28;;;;;;;6.15;3.40;;;20.30;62.00;;;;;;4930344;28;20086;-51
2023/05/07 03:41:54;;;;;;;3.88;3.58;;;20.30;62.00;;;;;;4948862;28;20042;-50
2023/05/07 03:44:20;;;;;;;5.57;3.70;;;20.30;62.00;;;;;;4959279;28;20038;-49
2023/05/07 03:46:45;;;;;;;4.60;3.95;;;20.30;62.00;;;;;;4965163;28;20050;-52
2023/05/07 03:49:10;;;;;;;5.35;3.70;;;20.30;62.00;;;;;;4957562;28;20336;-51
2023/05/07 03:51:36;;;;;;;4.55;3.95;;;20.30;62.00;;;;;;4954002;28;20036;-50
2023/05/07 03:54:02;;;;;;;3.78;3.47;;;20.20;61.90;;;;;;4954135;28;20398;-50
2023/05/07 03:56:27;;;;;;;5.40;4.18;;;20.30;62.00;;;;;;4960276;28;20692;-53
2023/05/07 03:58:54;;;;;;;3.85;3.30;;;20.30;62.00;;;;;;4963083;28;20136;-49
2023/05/07 04:01:19;;;;;;;3.60;3.30;;;20.30;62.00;;;;;;4958620;28;20400;-51
2023/05/07 04:03:45;;;;;;;4.88;3.75;;;20.30;62.00;;;;;;4965027;28;20046;-50
2023/05/07 04:06:10;;;;;;;4.25;3.50;;;20.30;62.00;;;;;;4964970;28;20026;-50
2023/05/07 04:08:36;;;;;;;4.70;3.70;;;20.30;61.90;;;;;;4959209;28;20163;-53
2023/05/07 04:11:01;;;;;;;4.13;3.60;;;20.30;61.90;;;;;;4959525;28;20035;-50
2023/05/07 04:13:27;;;;;;;5.10;3.72;;;20.30;61.90;;;;;;4979630;23;20501;-55
2023/05/07 04:15:55;;;;;;;4.93;3.67;;;20.20;61.80;;;;;;4969729;28;20069;-52
2023/05/07 04:18:21;;;;;;;4.40;4.00;;;20.20;61.80;;;;;;4988009;28;20598;-51
2023/05/07 04:20:49;;;;;;;4.25;3.85;;;20.20;61.90;;;;;;4968888;28;20338;-58
2023/05/07 04:23:15;;;;;;;4.20;3.70;;;20.20;61.90;;;;;;4995796;28;20042;-50
2023/05/07 04:25:40;;;;;;;5.63;3.70;;;20.20;61.90;;;;;;4989024;28;20037;-50
2023/05/07 04:28:06;;;;;;;4.30;3.38;;;20.20;61.90;;;;;;4988909;28;20030;-51
2023/05/07 04:30:31;;;;;;;5.40;3.83;;;20.20;61.90;;;;;;4990788;28;20092;-57
2023/05/07 04:32:57;;;;;;;5.15;4.00;;;20.20;61.90;;;;;;4994146;28;20092;-50
2023/05/07 04:35:22;;;;;;;3.97;3.58;;;20.20;61.90;;;;;;4991188;28;20554;-49
2023/05/07 04:37:48;;;;;;;4.95;4.20;;;20.20;62.00;;;;;;4993804;28;20029;-49
2023/05/07 04:40:14;;;;;;;4.07;3.70;;;20.20;61.90;;;;;;4991530;28;20071;-56
2023/05/07 04:42:39;;;;;;;4.65;4.15;;;20.20;61.90;;;;;;4989797;28;20092;-48
2023/05/07 04:45:05;;;;;;;3.47;3.17;;;20.20;61.90;;;;;;4991804;28;20041;-50
2023/05/07 04:47:31;;;;;;;4.32;3.30;;;20.20;61.90;;;;;;4993596;28;20507;-48
2023/05/07 04:49:57;;;;;;;5.85;3.95;;;20.20;61.90;;;;;;4988471;28;20029;-51
2023/05/07 04:52:23;;;;;;;6.10;3.97;;;20.20;62.00;;;;;;4997915;28;20141;-48
2023/05/07 04:54:49;;;;;;;6.28;3.75;;;20.20;61.90;;;;;;4962355;28;20061;-49
2023/05/07 04:57:14;;;;;;;4.30;3.90;;;20.20;61.90;;;;;;4988521;28;20038;-56
2023/05/07 04:59:40;;;;;;;6.13;4.13;;;20.20;62.20;;;;;;4989336;28;20045;-51
2023/05/07 05:02:05;;;;;;;3.63;3.30;;;20.20;61.90;;;;;;4993533;28;20578;-51
2023/05/07 05:04:31;;;;;;;4.20;3.80;;;20.20;61.90;;;;;;4993469;28;20070;-51
2023/05/07 05:06:57;;;;;;;5.05;3.95;;;20.20;61.90;;;;;;4984376;28;20061;-55
2023/05/07 05:09:23;;;;;;;3.97;3.65;;;20.20;61.90;;;;;;4990594;28;20034;-49
2023/05/07 05:11:48;;;;;;;4.05;3.40;;;20.20;61.90;;;;;;4989922;28;20041;-60
2023/05/07 05:14:14;;;;;;;3.47;3.17;;;20.20;61.90;;;;;;4989450;28;20043;-53
2023/05/07 05:16:39;;;;;;;5.00;3.85;;;20.20;61.90;;;;;;4988247;28;20164;-49
2023/05/07 05:19:05;;;;;;;4.47;3.45;;;20.20;61.90;;;;;;4987154;28;20034;-53
2023/05/07 05:21:32;;;;;;;3.78;3.45;;;20.20;61.90;;;;;;4985723;28;20038;-58
2023/05/07 05:23:57;;;;;;;5.30;3.90;;;20.20;61.90;;;;;;4983290;28;20122;-50
2023/05/07 05:26:23;;;;;;;5.40;3.70;;;20.20;61.90;;;;;;4987930;28;20121;-53
2023/05/07 05:28:49;;;;;;;4.60;3.85;;;20.20;61.90;;;;;;4991049;28;20030;-50
2023/05/07 05:31:16;;;;;;;5.75;3.88;;;20.20;61.90;;;;;;4991753;28;21264;-54
2023/05/07 05:33:41;;;;;;;4.03;3.63;;;20.20;61.90;;;;;;4992774;28;20388;-54
2023/05/07 05:36:10;;;;;;;4.53;4.13;;;20.20;61.90;;;;;;4976120;28;20029;-50
2023/05/07 05:38:35;;;;;;;3.90;3.33;;;20.20;61.90;;;;;;4989547;28;20099;-59
2023/05/07 05:41:01;;;;;;;4.60;3.80;;;20.20;61.90;;;;;;4986807;28;20026;-53
2023/05/07 05:43:26;;;;;;;4.13;3.72;;;20.20;61.90;;;;;;4987442;28;20522;-50
2023/05/07 05:45:51;;;;;;;4.68;4.03;;;20.20;61.90;;;;;;4987338;28;20576;-55
2023/05/07 05:48:17;;;;;;;5.90;4.10;;;20.20;61.90;;;;;;4984669;28;20030;-52
2023/05/07 05:50:42;;;;;;;4.20;3.80;;;20.10;61.80;;;;;;4989508;28;20869;-49
2023/05/07 05:53:08;;;;;;;4.10;3.70;;;20.10;61.80;;;;;;4987910;28;20101;-52
2023/05/07 05:55:34;;;;;;;4.10;3.70;;;20.20;61.90;;;;;;4986510;28;20061;-50
2023/05/07 05:58:00;;;;;;;5.00;3.60;;;20.10;61.80;;;;;;4991643;28;20061;-48
2023/05/07 06:00:26;;;;;;;4.45;4.05;;;20.10;61.80;;;;;;4987941;28;20117;-57
2023/05/07 06:02:52;;;;;;;4.00;3.67;;;20.10;61.80;;;;;;4992844;28;20030;-51
2023/05/07 06:05:17;;;;;;;4.22;3.83;;;20.10;61.80;;;;;;4993574;28;20578;-53
2023/05/07 06:07:43;;;;;;;5.43;3.55;;;20.20;61.90;;;;;;4982474;28;20046;-51
2023/05/07 06:10:08;;;;;;;4.55;4.07;;;20.10;61.80;;;;;;4992156;28;20037;-57
2023/05/07 06:12:34;;;;;;;4.38;3.78;;;20.10;61.90;;;;;;4987319;28;20030;-55
2023/05/07 06:14:59;;;;;;;5.10;4.03;;;20.20;61.90;;;;;;4986946;28;20042;-49
2023/05/07 06:17:25;;;;;;;4.40;3.88;;;20.10;61.80;;;;;;4992072;28;20661;-54
2023/05/07 06:19:51;;;;;;;4.45;3.85;;;20.10;61.80;;;;;;4984485;28;20029;-50
2023/05/07 06:22:16;;;;;;;4.20;3.80;;;20.20;61.80;;;;;;4984448;28;20033;-48
2023/05/07 06:24:42;;;;;;;4.95;4.00;;;20.10;61.80;;;;;;4989242;28;20037;-49
2023/05/07 06:27:07;;;;;;;5.18;4.15;;;20.10;61.80;;;;;;4987973;28;20033;-55
2023/05/07 06:29:33;;;;;;;3.78;3.42;;;20.10;61.80;;;;;;4988855;28;20603;-55
2023/05/07 06:32:09;;;;;;;4.00;3.60;;;20.10;61.80;;;;;;4993479;28;20183;-56
2023/05/07 06:34:35;;;;;;;4.80;4.07;;;20.10;61.80;;;;;;4993661;28;20033;-51
2023/05/07 06:37:00;;;;;;;4.53;3.67;;;20.10;61.80;;;;;;4990260;28;20117;-54
2023/05/07 06:39:26;;;;;;;5.07;4.15;;;20.10;61.80;;;;;;4988134;28;20053;-53
2023/05/07 06:41:51;;;;;;;4.35;3.95;;;20.10;61.90;;;;;;4987920;28;20038;-53
2023/05/07 06:44:17;;;;;;;4.03;3.63;;;20.10;61.80;;;;;;4989660;28;20397;-50
2023/05/07 06:46:42;;;;;;;5.07;4.05;;;20.10;61.80;;;;;;4984929;28;20041;-48
2023/05/07 06:49:08;;;;;;;4.75;4.28;;;20.10;61.80;;;;;;4985207;28;20034;-50
2023/05/07 06:51:34;;;;;;;4.68;4.13;;;20.10;61.80;;;;;;4985862;28;20631;-57
2023/05/07 06:53:59;;;;;;;4.07;3.65;;;20.10;61.80;;;;;;4988657;28;20115;-58
2023/05/07 06:56:25;;;;;;;4.60;3.95;;;20.10;61.80;;;;;;4987840;28;20038;-49
2023/05/07 06:58:51;;;;;;;5.05;4.25;;;20.10;61.80;;;;;;4993560;28;20129;-49
2023/05/07 07:01:16;;;;;;;4.57;4.05;;;20.10;61.70;;;;;;4990593;28;20045;-54
2023/05/07 07:03:42;;;;;;;4.32;3.92;;;20.10;61.80;;;;;;4993837;28;20586;-55
2023/05/07 07:06:07;;;;;;;5.15;4.28;;;20.10;61.70;;;;;;4987953;28;20042;-48
2023/05/07 07:08:34;;;;;;;4.82;4.43;;;20.10;61.70;;;;;;4987543;28;20030;-49
2023/05/07 07:10:59;;;;;;;4.55;3.70;;;20.10;61.70;;;;;;4986037;28;20711;-51
2023/05/07 07:13:25;;;;;;;5.18;4.28;;;20.10;61.70;;;;;;4989049;28;20030;-53
2023/05/07 07:15:51;;;;;;;4.38;3.97;;;20.10;61.70;;;;;;4986412;28;20060;-55
2023/05/07 07:18:17;;;;;;;5.47;4.07;;;20.10;61.70;;;;;;4983832;28;20030;-50
2023/05/07 07:20:44;;;;;;;4.68;4.18;;;20.10;61.70;;;;;;4985296;28;20163;-57
2023/05/07 07:23:09;;;;;;;4.88;4.38;;;20.10;61.70;;;;;;4986975;28;20026;-53
2023/05/07 07:25:35;;;;;;;5.25;4.35;;;20.10;61.70;;;;;;4987438;28;20037;-50
2023/05/07 07:28:01;;;;;;;7.25;5.32;;;20.10;61.60;;;;;;4993995;28;20030;-53
2023/05/07 07:30:26;;;;;;;6.28;4.72;;;20.10;61.60;;;;;;4968370;28;20042;-51
2023/05/07 07:32:52;;;;;;;7.75;4.70;;;20.10;61.60;;;;;;4991683;28;20029;-49
2023/05/07 07:35:18;;;;;;;7.13;4.25;;;20.10;61.70;;;;;;4985374;28;20137;-50
2023/05/07 07:37:43;;;;;;;7.65;4.93;;;20.10;61.70;;;;;;4987890;28;20165;-53
2023/05/07 07:40:09;;;;;;;23.60;13.10;;;20.10;61.80;;;;;;4985024;28;20064;-54
2023/05/07 07:42:35;;;;;;;34.53;20.30;;;20.10;61.90;;;;;;4989053;28;20339;-52
2023/05/07 07:45:01;;;;;;;38.28;21.00;;;20.10;62.20;;;;;;4985487;28;20113;-55
2023/05/07 07:47:26;;;;;;;32.85;17.45;;;20.10;62.40;;;;;;4974826;28;20092;-51
2023/05/07 07:49:51;;;;;;;28.48;16.55;;;20.10;62.70;;;;;;4986619;28;20034;-53
2023/05/07 07:52:18;;;;;;;29.65;17.35;;;20.10;62.80;;;;;;4986117;28;20117;-56
2023/05/07 07:54:44;;;;;;;38.10;17.40;;;20.10;62.80;;;;;;4991960;28;20030;-53
2023/05/07 07:57:10;;;;;;;29.98;17.30;;;20.10;62.80;;;;;;4988393;28;20714;-55
2023/05/07 07:59:35;;;;;;;26.45;15.65;;;20.10;62.70;;;;;;4992976;28;20050;-53
2023/05/07 08:02:01;;;;;;;22.27;14.95;;;20.10;62.60;;;;;;4994268;28;20026;-51
2023/05/07 08:04:26;;;;;;;25.83;16.52;;;20.10;62.50;;;;;;4988683;28;20030;-52
2023/05/07 08:06:54;;;;;;;22.30;14.68;;;20.10;62.50;;;;;;4985262;28;20026;-49
2023/05/07 08:09:20;;;;;;;25.27;13.95;;;20.00;62.40;;;;;;4987492;28;20122;-55
2023/05/07 08:11:45;;;;;;;28.67;15.85;;;20.10;62.40;;;;;;4983297;28;20038;-52
2023/05/07 08:14:11;;;;;;;19.73;13.88;;;20.10;62.30;;;;;;4982229;28;20035;-49
2023/05/07 08:16:37;;;;;;;24.13;14.00;;;20.10;62.40;;;;;;4983700;28;20030;-51
2023/05/07 08:19:02;;;;;;;23.85;14.60;;;20.00;62.30;;;;;;4985040;28;20037;-55
2023/05/07 08:21:28;;;;;;;22.33;14.15;;;20.10;62.30;;;;;;4986349;28;20510;-52
2023/05/07 08:23:53;;;;;;;21.70;12.88;;;20.10;62.20;;;;;;4970854;28;20499;-49
2023/05/07 08:26:20;;;;;;;22.10;13.80;;;20.00;62.20;;;;;;4992452;28;20113;-52
2023/05/07 08:28:45;;;;;;;20.75;12.77;;;20.00;62.10;;;;;;4994639;28;20038;-52
2023/05/07 08:31:11;;;;;;;19.05;12.93;;;20.00;62.10;;;;;;4994140;28;20025;-55
2023/05/07 08:33:38;;;;;;;19.90;12.55;;;20.00;62.10;;;;;;4991492;28;20038;-52
2023/05/07 08:36:04;;;;;;;20.90;13.13;;;20.00;62.10;;;;;;4992782;28;20030;-54
2023/05/07 08:38:30;;;;;;;19.00;12.60;;;20.00;62.10;;;;;;4989595;28;20279;-50
2023/05/07 08:40:55;;;;;;;21.95;12.63;;;20.00;62.10;;;;;;4990980;28;20093;-53
2023/05/07 08:43:23;;;;;;;20.65;12.05;;;20.00;62.00;;;;;;4986144;28;20037;-51
2023/05/07 08:45:51;;;;;;;20.15;11.90;;;20.00;61.90;;;;;;4989095;28;20129;-51
2023/05/07 08:48:18;;;;;;;20.70;11.15;;;20.00;62.00;;;;;;4988841;28;20026;-49
2023/05/07 08:50:43;;;;;;;18.80;11.38;;;20.00;61.90;;;;;;4993539;28;20041;-50
2023/05/07 08:53:09;;;;;;;15.52;11.38;;;20.00;61.90;;;;;;4989928;28;20782;-51
2023/05/07 08:55:34;;;;;;;16.02;10.60;;;20.00;61.90;;;;;;4994078;28;20399;-52
2023/05/07 08:58:01;;;;;;;18.10;9.73;;;20.00;61.90;;;;;;4995217;28;20117;-51
2023/05/07 09:00:26;;;;;;;14.75;9.35;;;20.10;61.90;;;;;;4991281;28;20061;-52
2023/05/07 09:02:53;;;;;;;18.88;9.90;;;20.00;61.90;;;;;;4969324;28;20062;-54
2023/05/07 09:05:19;;;;;;;15.23;9.68;;;20.10;61.90;;;;;;4987113;28;20113;-55
2023/05/07 09:07:46;;;;;;;13.02;10.02;;;20.00;61.80;;;;;;4975868;28;20037;-52
2023/05/07 09:10:11;;;;;;;14.50;8.95;;;20.00;61.70;;;;;;4986489;28;20503;-52
2023/05/07 09:12:37;;;;;;;12.88;8.32;;;20.00;61.60;;;;;;4984866;28;20105;-52
2023/05/07 09:15:03;;;;;;;14.88;8.45;;;20.00;61.70;;;;;;4988332;28;20038;-52
2023/05/07 09:17:29;;;;;;;11.55;8.23;;;20.00;61.60;;;;;;4987760;28;20393;-55
2023/05/07 09:19:55;;;;;;;13.13;7.55;;;20.00;61.50;;;;;;4990763;28;20777;-50
2023/05/07 09:22:20;;;;;;;23.63;11.38;;;20.00;61.40;;;;;;4988133;28;20042;-55
2023/05/07 09:24:50;;;;;;;27.83;13.38;;;20.00;61.90;;;;;;4991968;28;20646;-48
2023/05/07 09:27:15;;;;;;;23.00;11.98;;;20.00;62.30;;;;;;4982560;28;20056;-55
2023/05/07 09:29:41;;;;;;;24.17;12.38;;;20.10;62.70;;;;;;4974632;28;20508;-57
2023/05/07 09:32:08;;;;;;;19.88;11.13;;;20.10;62.70;;;;;;4970429;28;20040;-50
2023/05/07 09:34:36;;;;;;;21.83;11.20;;;20.10;62.70;;;;;;4968751;28;20193;-52
2023/05/07 09:37:05;;;;;;;17.25;9.55;;;20.10;62.70;;;;;;4971649;28;20147;-55
2023/05/07 09:39:44;;;;;;;19.27;10.40;;;20.10;62.80;;;;;;4967329;28;20074;-48
2023/05/07 09:42:11;;;;;;;17.05;10.23;;;20.10;62.80;;;;;;4968704;28;20113;-55
2023/05/07 09:44:37;;;;;;;14.80;8.45;;;20.10;62.60;;;;;;4967854;28;20157;-51
2023/05/07 09:47:05;;;;;;;20.10;10.55;;;20.10;62.60;;;;;;4969533;28;20034;-50
2023/05/07 09:49:34;;;;;;;18.02;10.02;;;20.10;62.60;;;;;;4969804;28;20035;-50
2023/05/07 09:52:01;;;;;;;16.23;8.77;;;20.10;62.50;;;;;;4973858;28;20503;-52
2023/05/07 09:54:30;;;;;;;16.05;9.05;;;20.10;62.40;;;;;;4972126;28;20690;-51
2023/05/07 09:56:56;;;;;;;14.93;8.10;;;20.10;62.40;;;;;;4975786;28;20052;-55
2023/05/07 09:59:22;;;;;;;17.92;8.45;;;20.10;62.50;;;;;;4986065;28;20050;-50
2023/05/07 10:01:50;;;;;;;16.67;7.93;;;20.10;62.60;;;;;;4972883;28;20073;-53
2023/05/07 10:04:18;;;;;;;12.68;8.20;;;20.10;62.60;;;;;;4978494;28;20049;-52
2023/05/07 10:06:45;;;;;;;12.88;7.95;;;20.10;62.70;;;;;;4977275;28;20034;-49
2023/05/07 10:09:12;;;;;;;13.95;7.68;;;20.10;62.80;;;;;;4983108;28;20101;-57
2023/05/07 10:11:37;;;;;;;13.18;7.47;;;20.20;62.70;;;;;;4966871;28;20051;-48
2023/05/07 10:14:05;;;;;;;16.88;8.13;;;20.20;62.70;;;;;;4975638;28;20036;-53
2023/05/07 10:16:35;;;;;;;14.20;7.80;;;20.20;62.60;;;;;;4972743;28;20031;-50
2023/05/07 10:19:03;;;;;;;10.23;6.50;;;20.20;62.50;;;;;;4968429;28;20507;-51
2023/05/07 10:21:31;;;;;;;9.40;6.25;;;20.20;62.40;;;;;;4968170;28;20528;-57
2023/05/07 10:24:10;;;;;;;14.13;7.30;;;20.10;62.20;;;;;;4987513;28;20498;-54
2023/05/07 10:26:36;;;;;;;12.73;7.05;;;20.10;62.20;;;;;;4969476;28;20181;-48
2023/05/07 10:29:07;;;;;;;9.75;6.28;;;20.20;62.20;;;;;;4972877;28;20042;-47
2023/05/07 10:32:00;;;;;;;11.80;5.60;;;20.20;62.40;;;;;;4961620;28;20513;-55
2023/05/07 10:34:32;;;;;;;9.30;5.93;;;20.20;62.50;;;;;;4965915;28;20031;-50
2023/05/07 10:36:58;;;;;;;11.20;6.65;;;20.30;62.60;;;;;;4967376;28;20033;-53
2023/05/07 10:39:24;;;;;;;8.07;5.57;;;20.30;62.50;;;;;;4973026;28;20031;-53
2023/05/07 10:41:49;;;;;;;11.18;5.32;;;20.40;62.50;;;;;;4976252;28;20125;-49
2023/05/07 10:44:31;;;;;;;6.72;4.80;;;20.40;62.40;;;;;;4913688;28;20085;-57
2023/05/07 10:47:09;;;;;;;8.50;5.28;;;20.50;62.50;;;;;;4970902;28;20034;-47
2023/05/07 10:49:36;;;;;;;10.32;5.18;;;20.50;62.50;;;;;;4970861;28;20129;-51
2023/05/07 10:52:24;;;;;;;7.60;5.13;;;20.50;62.40;;;;;;4979806;28;20038;-52
2023/05/07 10:55:17;;;;;;;10.27;5.25;;;20.50;62.40;;;;;;4970360;28;20050;-54
2023/05/07 10:57:42;;;;;;;6.25;4.22;;;20.50;62.40;;;;;;4969950;28;20101;-48
2023/05/07 11:00:29;;;;;;;9.00;5.15;;;20.60;62.20;;;;;;4968227;28;20038;-50
2023/05/07 11:03:00;;;;;;;8.60;4.80;;;20.60;62.30;;;;;;4954905;28;20125;-49
2023/05/07 11:05:30;;;;;;;8.70;4.97;;;20.60;62.60;;;;;;4970309;28;20129;-52
2023/05/07 11:07:59;;;;;;;5.82;4.38;;;20.60;62.60;;;;;;4971032;28;20038;-54
2023/05/07 11:10:47;;;;;;;6.28;4.15;;;20.60;62.70;;;;;;4975936;28;20091;-50
2023/05/07 11:13:12;;;;;;;7.57;4.63;;;20.70;62.70;;;;;;4986119;28;20046;-54
2023/05/07 11:15:41;;;;;;;6.60;4.82;;;20.60;62.70;;;;;;4986724;28;20042;-54
2023/05/07 11:18:07;;;;;;;5.90;4.15;;;20.60;62.70;;;;;;4987017;28;20042;-51
2023/05/07 11:20:54;;;;;;;5.00;4.32;;;20.70;62.70;;;;;;4987639;28;20045;-50
2023/05/07 11:23:35;;;;;;;7.18;5.22;;;20.70;62.70;;;;;;4988415;28;20053;-48
2023/05/07 11:26:09;;;;;;;5.50;4.15;;;20.70;62.60;;;;;;4994355;28;20038;-49
2023/05/07 11:28:42;;;;;;;7.35;4.78;;;20.70;62.70;;;;;;4989036;28;20372;-49
2023/05/07 11:31:09;;;;;;;5.65;4.22;;;20.70;63.20;;;;;;4987407;28;20038;-50
2023/05/07 11:33:35;;;;;;;7.13;4.50;;;20.70;62.50;;;;;;4985189;28;20038;-51
2023/05/07 11:36:03;;;;;;;9.38;4.40;;;20.70;62.40;;;;;;4985777;28;20030;-49
2023/05/07 11:38:30;;;;;;;6.05;4.03;;;20.70;62.40;;;;;;4973758;28;20301;-47
2023/05/07 11:41:00;;;;;;;6.90;4.32;;;20.70;62.40;;;;;;4981059;28;20796;-49
2023/05/07 11:43:26;;;;;;;6.22;3.80;;;20.70;62.30;;;;;;4971273;28;20026;-48
2023/05/07 11:45:52;;;;;;;11.00;4.30;;;20.70;62.20;;;;;;4991365;28;20065;-49
2023/05/07 11:48:18;;;;;;;9.10;4.43;;;20.70;62.10;;;;;;4986083;28;20058;-50
2023/05/07 11:50:51;;;;;;;7.07;4.30;;;20.70;62.10;;;;;;4986664;28;20037;-52
2023/05/07 11:53:17;;;;;;;8.88;4.25;;;20.70;62.00;;;;;;4993237;28;20708;-50
2023/05/07 11:55:43;;;;;;;7.72;3.80;;;20.70;62.40;;;;;;4992677;28;20033;-50
2023/05/07 11:58:12;;;;;;;6.78;3.47;;;20.70;62.40;;;;;;4992189;28;20099;-52
2023/05/07 12:00:37;;;;;;;6.80;3.97;;;20.70;62.60;;;;;;4987847;28;20079;-50
2023/05/07 12:03:06;;;;;;;5.75;4.13;;;20.70;62.80;;;;;;4988412;28;20126;-49
2023/05/07 12:05:31;;;;;;;10.20;6.30;;;20.80;62.90;;;;;;4990358;28;20038;-50
2023/05/07 12:07:57;;;;;;;9.20;7.00;;;20.80;62.80;;;;;;4991191;28;20110;-50
2023/05/07 12:10:24;;;;;;;19.23;10.27;;;20.70;62.90;;;;;;4990968;28;20695;-51
2023/05/07 12:12:50;;;;;;;35.45;22.52;;;20.70;63.10;;;;;;4991930;28;20091;-52
2023/05/07 12:15:17;;;;;;;68.80;39.13;;;20.70;63.60;;;;;;4977201;28;20572;-49
2023/05/07 12:17:43;;;;;;;101.38;59.28;;;20.80;64.10;;;;;;4990926;28;20034;-47
2023/05/07 12:20:09;;;;;;;120.38;74.03;;;20.70;64.50;;;;;;4991467;28;20045;-48
2023/05/07 12:22:36;;;;;;;185.15;111.95;;;20.70;65.00;;;;;;4996425;28;20053;-49
2023/05/07 12:25:02;;;;;;;213.82;132.18;;;20.80;64.90;;;;;;4972180;28;20037;-50
2023/05/07 12:27:28;;;;;;;198.25;126.10;;;20.80;65.40;;;;;;4992435;28;20395;-53
2023/05/07 12:29:54;;;;;;;179.02;118.13;;;20.80;65.60;;;;;;4992486;28;20038;-52
2023/05/07 12:32:20;;;;;;;161.60;108.32;;;20.80;66.50;;;;;;4990966;28;20038;-48
2023/05/07 12:34:49;;;;;;;157.10;104.03;;;20.80;65.80;;;;;;4990064;28;20037;-48
2023/05/07 12:37:14;;;;;;;150.43;99.03;;;20.80;65.60;;;;;;4990521;28;20057;-51
2023/05/07 12:40:02;;;;;;;135.35;91.82;;;20.80;65.40;;;;;;4988199;28;20035;-47